sensor_id;sensor_type;location;lat;lon;timestamp;noise_LAeq;noise_LA_min;noise_LA_max;noise_LA01;noise_LA95
67308;Laerm;57662;51.436;5.978;2024-03-08T00:00:10;38.73;36.72;46.52;;
67308;Laerm;57662;51.436;5.978;2024-03-08T00:00:22;37.68;36.77;38.71;;
67308;Laerm;57662;51.436;5.978;2024-03-08T00:00:32;37.74;36.81;38.71;;
67308;Laerm;57662;51.436;5.978;2024-03-08T00:00:43;37.73;36.57;38.77;;
67308;Laerm;57662;51.436;5.978;2024-03-08T00:00:53;37.74;36.89;38.97;;
67308;Laerm;57662;51.436;5.978;2024-03-08T00:01:03;37.66;36.77;38.80;;
67308;Laerm;57662;51.436;5.978;2024-03-08T00:01:14;37.68;36.51;38.49;;
67308;Laerm;57662;51.436;5.978;2024-03-08T00:01:26;37.72;36.46;38.68;;
67308;Laerm;57662;51.436;5.978;2024-03-08T00:01:36;37.72;36.84;38.57;;
67308;Laerm;57662;51.436;5.978;2024-03-08T00:01:46;37.63;36.61;38.70;;
67308;Laerm;57662;51.436;5.978;2024-03-08T00:01:57;37.67;36.59;38.47;;
67308;Laerm;57662;51.436;5.978;2024-03-08T00:02:07;37.65;36.56;38.64;;
67308;Laerm;57662;51.436;5.978;2024-03-08T00:02:17;37.70;36.64;38.61;;
67308;Laerm;57662;51.436;5.978;2024-03-08T00:02:29;37.68;36.61;38.86;;
67308;Laerm;57662;51.436;5.978;2024-03-08T00:02:40;37.67;36.71;38.47;;
67308;Laerm;57662;51.436;5.978;2024-03-08T00:02:50;37.70;36.67;38.90;;
67308;Laerm;57662;51.436;5.978;2024-03-08T00:03:00;37.70;36.72;38.70;;
67308;Laerm;57662;51.436;5.978;2024-03-08T00:03:12;37.72;36.53;38.59;;
67308;Laerm;57662;51.436;5.978;2024-03-08T00:03:22;37.70;36.79;38.89;;
67308;Laerm;57662;51.436;5.978;2024-03-08T00:03:33;37.66;36.50;38.64;;
67308;Laerm;57662;51.436;5.978;2024-03-08T00:03:43;37.66;36.59;38.63;;
67308;Laerm;57662;51.436;5.978;2024-03-08T00:03:54;37.72;36.70;38.79;;
67308;Laerm;57662;51.436;5.978;2024-03-08T00:04:04;37.73;36.88;38.76;;
67308;Laerm;57662;51.436;5.978;2024-03-08T00:04:16;37.93;36.79;45.40;;
67308;Laerm;57662;51.436;5.978;2024-03-08T00:04:26;37.75;36.92;42.49;;
67308;Laerm;57662;51.436;5.978;2024-03-08T00:04:36;37.74;36.85;39.09;;
67308;Laerm;57662;51.436;5.978;2024-03-08T00:04:47;37.64;36.82;38.83;;
67308;Laerm;57662;51.436;5.978;2024-03-08T00:04:57;37.68;36.75;38.84;;
67308;Laerm;57662;51.436;5.978;2024-03-08T00:05:08;37.73;36.41;38.75;;
67308;Laerm;57662;51.436;5.978;2024-03-08T00:05:21;37.71;36.46;38.80;;
67308;Laerm;57662;51.436;5.978;2024-03-08T00:05:31;37.69;36.46;38.58;;
67308;Laerm;57662;51.436;5.978;2024-03-08T00:05:42;37.69;36.87;38.83;;
67308;Laerm;57662;51.436;5.978;2024-03-08T00:05:52;37.67;36.24;38.59;;
67308;Laerm;57662;51.436;5.978;2024-03-08T00:06:02;37.69;36.73;38.64;;
67308;Laerm;57662;51.436;5.978;2024-03-08T00:06:14;37.69;36.66;38.62;;
67308;Laerm;57662;51.436;5.978;2024-03-08T00:06:26;37.67;36.67;38.73;;
67308;Laerm;57662;51.436;5.978;2024-03-08T00:06:36;37.61;36.35;38.43;;
67308;Laerm;57662;51.436;5.978;2024-03-08T00:06:46;37.67;36.45;38.46;;
67308;Laerm;57662;51.436;5.978;2024-03-08T00:06:57;37.66;36.45;38.73;;
67308;Laerm;57662;51.436;5.978;2024-03-08T00:07:08;37.62;36.51;38.55;;
67308;Laerm;57662;51.436;5.978;2024-03-08T00:07:18;37.62;36.54;38.56;;
67308;Laerm;57662;51.436;5.978;2024-03-08T00:07:32;37.66;36.64;38.54;;
67308;Laerm;57662;51.436;5.978;2024-03-08T00:07:42;37.66;36.62;38.77;;
67308;Laerm;57662;51.436;5.978;2024-03-08T00:07:53;37.71;36.54;39.60;;
67308;Laerm;57662;51.436;5.978;2024-03-08T00:08:04;37.69;36.62;38.68;;
67308;Laerm;57662;51.436;5.978;2024-03-08T00:08:14;37.67;36.61;38.65;;
67308;Laerm;57662;51.436;5.978;2024-03-08T00:08:25;37.66;36.47;38.58;;
67308;Laerm;57662;51.436;5.978;2024-03-08T00:08:35;37.66;36.93;38.96;;
67308;Laerm;57662;51.436;5.978;2024-03-08T00:08:46;37.65;36.65;38.72;;
67308;Laerm;57662;51.436;5.978;2024-03-08T00:08:56;37.64;36.61;38.83;;
67308;Laerm;57662;51.436;5.978;2024-03-08T00:09:06;37.66;36.51;38.70;;
67308;Laerm;57662;51.436;5.978;2024-03-08T00:09:17;37.69;36.66;38.65;;
67308;Laerm;57662;51.436;5.978;2024-03-08T00:09:28;37.67;36.73;38.74;;
67308;Laerm;57662;51.436;5.978;2024-03-08T00:09:40;37.64;36.71;38.76;;
67308;Laerm;57662;51.436;5.978;2024-03-08T00:09:50;37.69;36.62;38.66;;
67308;Laerm;57662;51.436;5.978;2024-03-08T00:10:01;37.66;36.52;38.54;;
67308;Laerm;57662;51.436;5.978;2024-03-08T00:10:12;37.66;36.71;38.46;;
67308;Laerm;57662;51.436;5.978;2024-03-08T00:10:22;37.67;36.56;39.13;;
67308;Laerm;57662;51.436;5.978;2024-03-08T00:10:35;37.68;36.27;38.86;;
67308;Laerm;57662;51.436;5.978;2024-03-08T00:10:45;37.66;36.66;38.58;;
67308;Laerm;57662;51.436;5.978;2024-03-08T00:10:56;37.64;36.55;38.60;;
67308;Laerm;57662;51.436;5.978;2024-03-08T00:11:06;37.70;36.56;39.41;;
67308;Laerm;57662;51.436;5.978;2024-03-08T00:11:18;37.67;36.82;38.46;;
67308;Laerm;57662;51.436;5.978;2024-03-08T00:11:28;37.69;36.27;38.55;;
67308;Laerm;57662;51.436;5.978;2024-03-08T00:11:38;37.64;36.52;38.64;;
67308;Laerm;57662;51.436;5.978;2024-03-08T00:11:49;37.68;36.80;38.62;;
67308;Laerm;57662;51.436;5.978;2024-03-08T00:12:00;37.63;36.50;38.57;;
67308;Laerm;57662;51.436;5.978;2024-03-08T00:12:10;37.67;36.53;38.51;;
67308;Laerm;57662;51.436;5.978;2024-03-08T00:12:21;37.70;36.84;38.67;;
67308;Laerm;57662;51.436;5.978;2024-03-08T00:12:31;37.72;36.46;38.50;;
67308;Laerm;57662;51.436;5.978;2024-03-08T00:12:42;37.83;36.84;42.18;;
67308;Laerm;57662;51.436;5.978;2024-03-08T00:12:53;37.69;36.67;38.63;;
67308;Laerm;57662;51.436;5.978;2024-03-08T00:13:03;37.69;36.53;38.66;;
67308;Laerm;57662;51.436;5.978;2024-03-08T00:13:14;37.68;36.60;38.69;;
67308;Laerm;57662;51.436;5.978;2024-03-08T00:13:24;37.71;36.61;38.66;;
67308;Laerm;57662;51.436;5.978;2024-03-08T00:13:35;37.68;36.66;38.90;;
67308;Laerm;57662;51.436;5.978;2024-03-08T00:13:46;37.70;36.60;38.98;;
67308;Laerm;57662;51.436;5.978;2024-03-08T00:13:57;37.71;36.63;38.60;;
67308;Laerm;57662;51.436;5.978;2024-03-08T00:14:07;37.69;36.36;38.59;;
67308;Laerm;57662;51.436;5.978;2024-03-08T00:14:17;37.65;36.73;38.84;;
67308;Laerm;57662;51.436;5.978;2024-03-08T00:14:28;37.76;36.53;38.79;;
67308;Laerm;57662;51.436;5.978;2024-03-08T00:14:38;37.74;36.67;38.83;;
67308;Laerm;57662;51.436;5.978;2024-03-08T00:14:53;37.70;36.66;38.68;;
67308;Laerm;57662;51.436;5.978;2024-03-08T00:15:04;37.87;36.47;39.12;;
67308;Laerm;57662;51.436;5.978;2024-03-08T00:15:16;37.72;36.72;38.58;;
67308;Laerm;57662;51.436;5.978;2024-03-08T00:15:27;37.67;36.42;38.83;;
67308;Laerm;57662;51.436;5.978;2024-03-08T00:15:39;37.70;36.92;38.96;;
67308;Laerm;57662;51.436;5.978;2024-03-08T00:15:51;37.65;36.60;38.55;;
67308;Laerm;57662;51.436;5.978;2024-03-08T00:16:01;37.64;36.74;38.67;;
67308;Laerm;57662;51.436;5.978;2024-03-08T00:16:12;37.71;36.80;38.77;;
67308;Laerm;57662;51.436;5.978;2024-03-08T00:16:22;37.66;36.49;38.62;;
67308;Laerm;57662;51.436;5.978;2024-03-08T00:16:36;37.66;36.67;38.59;;
67308;Laerm;57662;51.436;5.978;2024-03-08T00:16:47;37.68;36.60;38.91;;
67308;Laerm;57662;51.436;5.978;2024-03-08T00:16:57;37.69;36.24;38.85;;
67308;Laerm;57662;51.436;5.978;2024-03-08T00:17:07;37.69;36.49;38.49;;
67308;Laerm;57662;51.436;5.978;2024-03-08T00:17:21;37.70;36.60;38.62;;
67308;Laerm;57662;51.436;5.978;2024-03-08T00:17:35;37.66;36.60;38.87;;
67308;Laerm;57662;51.436;5.978;2024-03-08T00:17:45;37.70;36.59;38.87;;
67308;Laerm;57662;51.436;5.978;2024-03-08T00:17:58;37.65;36.41;38.53;;
67308;Laerm;57662;51.436;5.978;2024-03-08T00:18:09;37.69;36.43;38.92;;
67308;Laerm;57662;51.436;5.978;2024-03-08T00:18:20;37.66;36.45;38.87;;
67308;Laerm;57662;51.436;5.978;2024-03-08T00:18:30;37.70;36.65;38.98;;
67308;Laerm;57662;51.436;5.978;2024-03-08T00:18:41;37.67;36.32;38.78;;
67308;Laerm;57662;51.436;5.978;2024-03-08T00:18:51;37.65;36.55;38.55;;
67308;Laerm;57662;51.436;5.978;2024-03-08T00:19:02;37.67;36.62;38.66;;
67308;Laerm;57662;51.436;5.978;2024-03-08T00:19:12;37.69;36.60;38.79;;
67308;Laerm;57662;51.436;5.978;2024-03-08T00:19:22;37.67;36.67;38.54;;
67308;Laerm;57662;51.436;5.978;2024-03-08T00:19:33;37.69;36.78;38.69;;
67308;Laerm;57662;51.436;5.978;2024-03-08T00:19:43;37.67;36.68;38.86;;
67308;Laerm;57662;51.436;5.978;2024-03-08T00:19:53;37.70;36.21;38.84;;
67308;Laerm;57662;51.436;5.978;2024-03-08T00:20:04;37.69;36.69;38.88;;
67308;Laerm;57662;51.436;5.978;2024-03-08T00:20:15;37.73;36.90;38.70;;
67308;Laerm;57662;51.436;5.978;2024-03-08T00:20:28;37.71;36.70;38.70;;
67308;Laerm;57662;51.436;5.978;2024-03-08T00:20:38;37.70;36.73;38.64;;
67308;Laerm;57662;51.436;5.978;2024-03-08T00:20:48;37.72;36.54;38.78;;
67308;Laerm;57662;51.436;5.978;2024-03-08T00:21:01;37.69;36.71;38.61;;
67308;Laerm;57662;51.436;5.978;2024-03-08T00:21:12;37.71;36.69;38.65;;
67308;Laerm;57662;51.436;5.978;2024-03-08T00:21:22;37.70;36.80;38.81;;
67308;Laerm;57662;51.436;5.978;2024-03-08T00:21:32;37.72;36.68;38.49;;
67308;Laerm;57662;51.436;5.978;2024-03-08T00:21:43;37.66;36.63;38.61;;
67308;Laerm;57662;51.436;5.978;2024-03-08T00:21:53;37.71;36.75;38.67;;
67308;Laerm;57662;51.436;5.978;2024-03-08T00:22:03;37.67;36.49;38.66;;
67308;Laerm;57662;51.436;5.978;2024-03-08T00:22:14;37.70;36.66;38.92;;
67308;Laerm;57662;51.436;5.978;2024-03-08T00:22:24;38.12;36.98;39.34;;
67308;Laerm;57662;51.436;5.978;2024-03-08T00:22:35;37.72;36.57;38.61;;
67308;Laerm;57662;51.436;5.978;2024-03-08T00:22:46;37.71;36.74;38.64;;
67308;Laerm;57662;51.436;5.978;2024-03-08T00:22:56;37.71;36.55;38.56;;
67308;Laerm;57662;51.436;5.978;2024-03-08T00:23:07;37.63;36.57;38.84;;
67308;Laerm;57662;51.436;5.978;2024-03-08T00:23:18;37.66;36.66;38.63;;
67308;Laerm;57662;51.436;5.978;2024-03-08T00:23:28;37.66;36.69;38.65;;
67308;Laerm;57662;51.436;5.978;2024-03-08T00:23:38;37.67;36.40;38.56;;
67308;Laerm;57662;51.436;5.978;2024-03-08T00:23:49;37.69;36.52;38.65;;
67308;Laerm;57662;51.436;5.978;2024-03-08T00:23:59;37.68;36.63;38.67;;
67308;Laerm;57662;51.436;5.978;2024-03-08T00:24:10;37.69;36.75;38.58;;
67308;Laerm;57662;51.436;5.978;2024-03-08T00:24:20;37.68;36.68;38.51;;
67308;Laerm;57662;51.436;5.978;2024-03-08T00:24:35;37.64;36.54;38.69;;
67308;Laerm;57662;51.436;5.978;2024-03-08T00:24:45;37.69;36.44;38.67;;
67308;Laerm;57662;51.436;5.978;2024-03-08T00:24:55;37.69;36.80;38.91;;
67308;Laerm;57662;51.436;5.978;2024-03-08T00:25:06;37.68;36.62;38.68;;
67308;Laerm;57662;51.436;5.978;2024-03-08T00:25:19;37.72;36.72;38.68;;
67308;Laerm;57662;51.436;5.978;2024-03-08T00:25:30;37.66;36.54;38.73;;
67308;Laerm;57662;51.436;5.978;2024-03-08T00:25:40;37.69;36.34;38.67;;
67308;Laerm;57662;51.436;5.978;2024-03-08T00:25:51;37.67;36.80;38.62;;
67308;Laerm;57662;51.436;5.978;2024-03-08T00:26:01;37.68;36.84;38.56;;
67308;Laerm;57662;51.436;5.978;2024-03-08T00:26:13;37.69;36.66;38.90;;
67308;Laerm;57662;51.436;5.978;2024-03-08T00:26:24;37.69;36.57;38.90;;
67308;Laerm;57662;51.436;5.978;2024-03-08T00:26:34;37.70;36.61;38.61;;
67308;Laerm;57662;51.436;5.978;2024-03-08T00:26:44;37.67;36.72;38.61;;
67308;Laerm;57662;51.436;5.978;2024-03-08T00:26:54;37.69;36.77;38.62;;
67308;Laerm;57662;51.436;5.978;2024-03-08T00:27:05;37.71;36.74;38.62;;
67308;Laerm;57662;51.436;5.978;2024-03-08T00:27:16;37.67;36.70;38.88;;
67308;Laerm;57662;51.436;5.978;2024-03-08T00:27:26;37.67;36.67;39.03;;
67308;Laerm;57662;51.436;5.978;2024-03-08T00:27:37;37.68;36.74;38.60;;
67308;Laerm;57662;51.436;5.978;2024-03-08T00:27:48;37.69;36.73;38.56;;
67308;Laerm;57662;51.436;5.978;2024-03-08T00:27:59;37.67;36.49;38.68;;
67308;Laerm;57662;51.436;5.978;2024-03-08T00:28:10;37.66;36.60;38.89;;
67308;Laerm;57662;51.436;5.978;2024-03-08T00:28:23;37.71;36.32;38.75;;
67308;Laerm;57662;51.436;5.978;2024-03-08T00:28:35;37.67;36.84;38.91;;
67308;Laerm;57662;51.436;5.978;2024-03-08T00:28:45;37.66;36.53;38.53;;
67308;Laerm;57662;51.436;5.978;2024-03-08T00:28:55;37.65;36.76;38.45;;
67308;Laerm;57662;51.436;5.978;2024-03-08T00:29:06;37.67;36.59;38.65;;
67308;Laerm;57662;51.436;5.978;2024-03-08T00:29:17;37.65;36.34;38.65;;
67308;Laerm;57662;51.436;5.978;2024-03-08T00:29:28;37.91;36.90;39.22;;
67308;Laerm;57662;51.436;5.978;2024-03-08T00:29:38;38.13;37.21;39.12;;
67308;Laerm;57662;51.436;5.978;2024-03-08T00:29:48;38.12;37.11;39.02;;
67308;Laerm;57662;51.436;5.978;2024-03-08T00:30:02;38.11;36.91;39.33;;
67308;Laerm;57662;51.436;5.978;2024-03-08T00:30:13;38.09;37.10;39.00;;
67308;Laerm;57662;51.436;5.978;2024-03-08T00:30:24;38.15;36.90;39.03;;
67308;Laerm;57662;51.436;5.978;2024-03-08T00:30:35;38.12;37.19;38.98;;
67308;Laerm;57662;51.436;5.978;2024-03-08T00:30:45;38.27;37.35;39.34;;
67308;Laerm;57662;51.436;5.978;2024-03-08T00:30:56;38.15;36.99;39.07;;
67308;Laerm;57662;51.436;5.978;2024-03-08T00:31:07;38.71;36.89;46.76;;
67308;Laerm;57662;51.436;5.978;2024-03-08T00:31:17;38.17;37.01;39.08;;
67308;Laerm;57662;51.436;5.978;2024-03-08T00:31:27;38.13;37.26;38.93;;
67308;Laerm;57662;51.436;5.978;2024-03-08T00:31:38;38.13;37.06;39.18;;
67308;Laerm;57662;51.436;5.978;2024-03-08T00:31:48;38.14;36.99;39.10;;
67308;Laerm;57662;51.436;5.978;2024-03-08T00:31:59;38.14;37.13;39.33;;
67308;Laerm;57662;51.436;5.978;2024-03-08T00:32:09;38.14;37.08;38.94;;
67308;Laerm;57662;51.436;5.978;2024-03-08T00:32:20;38.11;37.09;39.18;;
67308;Laerm;57662;51.436;5.978;2024-03-08T00:32:31;38.11;37.06;39.17;;
67308;Laerm;57662;51.436;5.978;2024-03-08T00:32:41;38.13;37.06;38.96;;
67308;Laerm;57662;51.436;5.978;2024-03-08T00:32:52;38.13;37.17;39.01;;
67308;Laerm;57662;51.436;5.978;2024-03-08T00:33:02;38.17;37.10;39.11;;
67308;Laerm;57662;51.436;5.978;2024-03-08T00:33:12;38.14;37.25;39.02;;
67308;Laerm;57662;51.436;5.978;2024-03-08T00:33:23;38.12;37.06;39.26;;
67308;Laerm;57662;51.436;5.978;2024-03-08T00:33:33;38.09;36.96;39.10;;
67308;Laerm;57662;51.436;5.978;2024-03-08T00:33:43;38.10;36.69;39.05;;
67308;Laerm;57662;51.436;5.978;2024-03-08T00:33:54;38.15;37.29;39.04;;
67308;Laerm;57662;51.436;5.978;2024-03-08T00:34:04;38.12;36.64;38.98;;
67308;Laerm;57662;51.436;5.978;2024-03-08T00:34:14;38.13;37.03;39.01;;
67308;Laerm;57662;51.436;5.978;2024-03-08T00:34:24;38.16;36.54;39.39;;
67308;Laerm;57662;51.436;5.978;2024-03-08T00:34:35;38.11;37.18;39.12;;
67308;Laerm;57662;51.436;5.978;2024-03-08T00:34:46;38.14;37.31;39.08;;
67308;Laerm;57662;51.436;5.978;2024-03-08T00:34:57;38.08;37.15;39.01;;
67308;Laerm;57662;51.436;5.978;2024-03-08T00:35:08;38.08;36.83;38.96;;
67308;Laerm;57662;51.436;5.978;2024-03-08T00:35:18;38.12;36.92;39.33;;
67308;Laerm;57662;51.436;5.978;2024-03-08T00:35:28;38.13;37.07;39.30;;
67308;Laerm;57662;51.436;5.978;2024-03-08T00:35:38;38.11;37.01;39.18;;
67308;Laerm;57662;51.436;5.978;2024-03-08T00:35:49;38.16;37.22;39.18;;
67308;Laerm;57662;51.436;5.978;2024-03-08T00:35:59;38.12;36.93;38.87;;
67308;Laerm;57662;51.436;5.978;2024-03-08T00:36:10;38.14;36.99;39.05;;
67308;Laerm;57662;51.436;5.978;2024-03-08T00:36:20;38.17;37.29;38.99;;
67308;Laerm;57662;51.436;5.978;2024-03-08T00:36:30;38.15;37.19;39.07;;
67308;Laerm;57662;51.436;5.978;2024-03-08T00:36:40;38.10;37.18;38.79;;
67308;Laerm;57662;51.436;5.978;2024-03-08T00:36:51;38.11;37.01;39.19;;
67308;Laerm;57662;51.436;5.978;2024-03-08T00:37:02;38.11;36.95;39.11;;
67308;Laerm;57662;51.436;5.978;2024-03-08T00:37:14;38.12;37.14;39.13;;
67308;Laerm;57662;51.436;5.978;2024-03-08T00:37:25;38.11;37.31;39.22;;
67308;Laerm;57662;51.436;5.978;2024-03-08T00:37:35;38.13;37.10;39.14;;
67308;Laerm;57662;51.436;5.978;2024-03-08T00:37:45;38.15;37.10;38.98;;
67308;Laerm;57662;51.436;5.978;2024-03-08T00:37:58;38.14;37.30;39.13;;
67308;Laerm;57662;51.436;5.978;2024-03-08T00:38:09;38.15;37.06;38.84;;
67308;Laerm;57662;51.436;5.978;2024-03-08T00:38:19;38.12;37.17;39.02;;
67308;Laerm;57662;51.436;5.978;2024-03-08T00:38:29;38.14;36.72;39.43;;
67308;Laerm;57662;51.436;5.978;2024-03-08T00:38:40;38.14;37.09;39.17;;
67308;Laerm;57662;51.436;5.978;2024-03-08T00:38:50;38.13;37.10;39.15;;
67308;Laerm;57662;51.436;5.978;2024-03-08T00:39:00;38.08;37.16;39.17;;
67308;Laerm;57662;51.436;5.978;2024-03-08T00:39:11;38.12;37.03;38.97;;
67308;Laerm;57662;51.436;5.978;2024-03-08T00:39:22;38.15;37.05;39.10;;
67308;Laerm;57662;51.436;5.978;2024-03-08T00:39:32;38.29;37.19;39.36;;
67308;Laerm;57662;51.436;5.978;2024-03-08T00:39:43;38.19;37.20;39.10;;
67308;Laerm;57662;51.436;5.978;2024-03-08T00:39:53;38.10;37.17;39.06;;
67308;Laerm;57662;51.436;5.978;2024-03-08T00:40:04;38.14;37.08;39.01;;
67308;Laerm;57662;51.436;5.978;2024-03-08T00:40:17;38.13;37.11;39.16;;
67308;Laerm;57662;51.436;5.978;2024-03-08T00:40:27;38.14;37.04;39.16;;
67308;Laerm;57662;51.436;5.978;2024-03-08T00:40:38;38.10;37.11;39.01;;
67308;Laerm;57662;51.436;5.978;2024-03-08T00:40:50;38.06;37.01;39.12;;
67308;Laerm;57662;51.436;5.978;2024-03-08T00:41:01;38.09;36.95;39.39;;
67308;Laerm;57662;51.436;5.978;2024-03-08T00:41:12;38.09;36.90;39.01;;
67308;Laerm;57662;51.436;5.978;2024-03-08T00:41:22;38.10;37.04;39.05;;
67308;Laerm;57662;51.436;5.978;2024-03-08T00:41:32;38.10;37.27;38.90;;
67308;Laerm;57662;51.436;5.978;2024-03-08T00:41:43;38.07;36.53;39.13;;
67308;Laerm;57662;51.436;5.978;2024-03-08T00:41:54;38.13;37.18;39.10;;
67308;Laerm;57662;51.436;5.978;2024-03-08T00:42:04;38.12;36.72;39.05;;
67308;Laerm;57662;51.436;5.978;2024-03-08T00:42:15;38.10;37.08;39.30;;
67308;Laerm;57662;51.436;5.978;2024-03-08T00:42:26;38.08;37.26;38.81;;
67308;Laerm;57662;51.436;5.978;2024-03-08T00:42:36;38.09;36.91;38.92;;
67308;Laerm;57662;51.436;5.978;2024-03-08T00:42:48;38.11;37.05;39.16;;
67308;Laerm;57662;51.436;5.978;2024-03-08T00:42:58;38.09;36.87;39.37;;
67308;Laerm;57662;51.436;5.978;2024-03-08T00:43:08;38.13;37.25;39.27;;
67308;Laerm;57662;51.436;5.978;2024-03-08T00:43:21;38.09;37.13;39.05;;
67308;Laerm;57662;51.436;5.978;2024-03-08T00:43:32;38.09;37.09;39.15;;
67308;Laerm;57662;51.436;5.978;2024-03-08T00:43:42;38.09;36.90;39.08;;
67308;Laerm;57662;51.436;5.978;2024-03-08T00:43:52;38.09;37.18;38.95;;
67308;Laerm;57662;51.436;5.978;2024-03-08T00:44:03;38.04;36.95;39.14;;
67308;Laerm;57662;51.436;5.978;2024-03-08T00:44:14;38.08;36.94;39.25;;
67308;Laerm;57662;51.436;5.978;2024-03-08T00:44:25;38.07;37.17;39.15;;
67308;Laerm;57662;51.436;5.978;2024-03-08T00:44:35;38.08;37.07;39.01;;
67308;Laerm;57662;51.436;5.978;2024-03-08T00:44:46;38.09;36.93;39.21;;
67308;Laerm;57662;51.436;5.978;2024-03-08T00:44:56;38.07;37.18;39.07;;
67308;Laerm;57662;51.436;5.978;2024-03-08T00:45:08;38.17;37.21;39.45;;
67308;Laerm;57662;51.436;5.978;2024-03-08T00:45:20;38.09;36.83;39.07;;
67308;Laerm;57662;51.436;5.978;2024-03-08T00:45:30;38.09;36.92;39.16;;
67308;Laerm;57662;51.436;5.978;2024-03-08T00:45:41;38.04;37.02;39.05;;
67308;Laerm;57662;51.436;5.978;2024-03-08T00:45:52;38.07;37.13;39.04;;
67308;Laerm;57662;51.436;5.978;2024-03-08T00:46:03;38.04;36.82;39.18;;
67308;Laerm;57662;51.436;5.978;2024-03-08T00:46:13;38.03;36.80;39.04;;
67308;Laerm;57662;51.436;5.978;2024-03-08T00:46:25;38.06;36.94;39.09;;
67308;Laerm;57662;51.436;5.978;2024-03-08T00:46:35;38.03;36.76;39.07;;
67308;Laerm;57662;51.436;5.978;2024-03-08T00:46:45;38.05;37.02;38.86;;
67308;Laerm;57662;51.436;5.978;2024-03-08T00:46:56;38.07;37.19;38.96;;
67308;Laerm;57662;51.436;5.978;2024-03-08T00:47:09;38.05;36.96;39.13;;
67308;Laerm;57662;51.436;5.978;2024-03-08T00:47:19;38.08;37.05;39.29;;
67308;Laerm;57662;51.436;5.978;2024-03-08T00:47:30;38.08;37.02;39.05;;
67308;Laerm;57662;51.436;5.978;2024-03-08T00:47:40;38.05;37.10;39.04;;
67308;Laerm;57662;51.436;5.978;2024-03-08T00:47:52;38.04;36.91;39.04;;
67308;Laerm;57662;51.436;5.978;2024-03-08T00:48:04;38.06;36.99;39.06;;
67308;Laerm;57662;51.436;5.978;2024-03-08T00:48:15;38.07;36.91;39.01;;
67308;Laerm;57662;51.436;5.978;2024-03-08T00:48:26;38.10;37.12;39.17;;
67308;Laerm;57662;51.436;5.978;2024-03-08T00:48:36;38.06;36.97;38.91;;
67308;Laerm;57662;51.436;5.978;2024-03-08T00:48:47;38.07;36.60;39.03;;
67308;Laerm;57662;51.436;5.978;2024-03-08T00:48:58;38.08;37.20;38.85;;
67308;Laerm;57662;51.436;5.978;2024-03-08T00:49:08;38.06;36.83;39.00;;
67308;Laerm;57662;51.436;5.978;2024-03-08T00:49:19;38.09;37.02;39.36;;
67308;Laerm;57662;51.436;5.978;2024-03-08T00:49:30;38.08;37.10;39.01;;
67308;Laerm;57662;51.436;5.978;2024-03-08T00:49:41;38.06;37.11;38.95;;
67308;Laerm;57662;51.436;5.978;2024-03-08T00:49:51;38.07;37.09;39.01;;
67308;Laerm;57662;51.436;5.978;2024-03-08T00:50:03;38.11;36.96;39.15;;
67308;Laerm;57662;51.436;5.978;2024-03-08T00:50:16;38.09;36.88;39.19;;
67308;Laerm;57662;51.436;5.978;2024-03-08T00:50:28;38.12;37.13;39.11;;
67308;Laerm;57662;51.436;5.978;2024-03-08T00:50:38;38.13;36.86;39.15;;
67308;Laerm;57662;51.436;5.978;2024-03-08T00:50:50;38.03;37.03;39.02;;
67308;Laerm;57662;51.436;5.978;2024-03-08T00:51:00;38.10;37.08;38.94;;
67308;Laerm;57662;51.436;5.978;2024-03-08T00:51:12;38.08;36.90;39.12;;
67308;Laerm;57662;51.436;5.978;2024-03-08T00:51:22;38.07;36.95;38.99;;
67308;Laerm;57662;51.436;5.978;2024-03-08T00:51:33;38.08;37.16;39.11;;
67308;Laerm;57662;51.436;5.978;2024-03-08T00:51:43;38.07;36.98;39.05;;
67308;Laerm;57662;51.436;5.978;2024-03-08T00:51:53;38.08;37.06;38.98;;
67308;Laerm;57662;51.436;5.978;2024-03-08T00:52:07;38.09;37.20;39.09;;
67308;Laerm;57662;51.436;5.978;2024-03-08T00:52:18;38.10;36.92;39.07;;
67308;Laerm;57662;51.436;5.978;2024-03-08T00:52:28;38.12;37.09;39.18;;
67308;Laerm;57662;51.436;5.978;2024-03-08T00:52:39;38.09;36.98;38.96;;
67308;Laerm;57662;51.436;5.978;2024-03-08T00:52:49;38.09;36.95;38.98;;
67308;Laerm;57662;51.436;5.978;2024-03-08T00:53:00;38.09;36.90;39.07;;
67308;Laerm;57662;51.436;5.978;2024-03-08T00:53:10;38.09;37.09;39.26;;
67308;Laerm;57662;51.436;5.978;2024-03-08T00:53:23;38.12;37.18;39.03;;
67308;Laerm;57662;51.436;5.978;2024-03-08T00:53:33;38.12;36.94;39.08;;
67308;Laerm;57662;51.436;5.978;2024-03-08T00:53:44;38.14;37.07;39.04;;
67308;Laerm;57662;51.436;5.978;2024-03-08T00:53:54;38.13;37.00;38.90;;
67308;Laerm;57662;51.436;5.978;2024-03-08T00:54:04;38.11;37.23;39.17;;
67308;Laerm;57662;51.436;5.978;2024-03-08T00:54:14;38.12;37.02;38.94;;
67308;Laerm;57662;51.436;5.978;2024-03-08T00:54:28;38.11;37.04;39.11;;
67308;Laerm;57662;51.436;5.978;2024-03-08T00:54:38;38.08;37.04;39.16;;
67308;Laerm;57662;51.436;5.978;2024-03-08T00:54:48;38.12;37.08;39.09;;
67308;Laerm;57662;51.436;5.978;2024-03-08T00:54:58;38.08;36.99;39.12;;
67308;Laerm;57662;51.436;5.978;2024-03-08T00:55:09;38.08;37.01;39.06;;
67308;Laerm;57662;51.436;5.978;2024-03-08T00:55:21;38.07;36.86;38.96;;
67308;Laerm;57662;51.436;5.978;2024-03-08T00:55:31;38.07;37.10;38.92;;
67308;Laerm;57662;51.436;5.978;2024-03-08T00:55:42;38.10;37.07;39.14;;
67308;Laerm;57662;51.436;5.978;2024-03-08T00:55:52;38.07;36.96;39.01;;
67308;Laerm;57662;51.436;5.978;2024-03-08T00:56:03;38.10;36.83;39.05;;
67308;Laerm;57662;51.436;5.978;2024-03-08T00:56:14;38.06;36.98;39.00;;
67308;Laerm;57662;51.436;5.978;2024-03-08T00:56:24;38.09;37.14;39.37;;
67308;Laerm;57662;51.436;5.978;2024-03-08T00:56:35;38.11;37.01;39.01;;
67308;Laerm;57662;51.436;5.978;2024-03-08T00:56:45;38.10;36.93;38.96;;
67308;Laerm;57662;51.436;5.978;2024-03-08T00:56:56;38.10;37.22;39.17;;
67308;Laerm;57662;51.436;5.978;2024-03-08T00:57:06;38.11;37.04;38.84;;
67308;Laerm;57662;51.436;5.978;2024-03-08T00:57:16;38.09;37.13;39.26;;
67308;Laerm;57662;51.436;5.978;2024-03-08T00:57:27;38.09;37.05;39.16;;
67308;Laerm;57662;51.436;5.978;2024-03-08T00:57:38;38.11;37.10;38.98;;
67308;Laerm;57662;51.436;5.978;2024-03-08T00:57:48;38.21;37.15;39.34;;
67308;Laerm;57662;51.436;5.978;2024-03-08T00:57:59;38.43;37.58;39.53;;
67308;Laerm;57662;51.436;5.978;2024-03-08T00:58:10;38.33;37.34;39.30;;
67308;Laerm;57662;51.436;5.978;2024-03-08T00:58:20;38.21;37.06;39.03;;
67308;Laerm;57662;51.436;5.978;2024-03-08T00:58:31;38.13;37.13;39.20;;
67308;Laerm;57662;51.436;5.978;2024-03-08T00:58:41;38.11;37.16;39.14;;
67308;Laerm;57662;51.436;5.978;2024-03-08T00:58:51;38.27;37.32;39.67;;
67308;Laerm;57662;51.436;5.978;2024-03-08T00:59:02;38.27;37.02;39.38;;
67308;Laerm;57662;51.436;5.978;2024-03-08T00:59:12;38.10;36.94;39.47;;
67308;Laerm;57662;51.436;5.978;2024-03-08T00:59:24;38.12;36.97;39.18;;
67308;Laerm;57662;51.436;5.978;2024-03-08T00:59:34;38.09;36.89;39.05;;
67308;Laerm;57662;51.436;5.978;2024-03-08T00:59:44;38.10;37.13;39.04;;
67308;Laerm;57662;51.436;5.978;2024-03-08T00:59:55;38.05;36.93;39.01;;
67308;Laerm;57662;51.436;5.978;2024-03-08T01:00:06;38.43;37.07;42.19;;
67308;Laerm;57662;51.436;5.978;2024-03-08T01:00:22;38.29;37.16;42.15;;
67308;Laerm;57662;51.436;5.978;2024-03-08T01:00:32;38.07;36.68;39.10;;